ARG1782 SABE-SARE
Flight info
| Callsign | ARG1782 |
|---|---|
| Flight time | N/A |
| Altitude | FL370 |
| Route | LAND4B LANDA UN785 GUA UL793 KILIP KILI2Q |
| Aircraft | B38M/M-SDE2E3FGHIRWXY/LB1 |
Departure
| Time | N/A |
|---|---|
| Airport | Aeroparque Jorge Newbery (SABE) |
Arrival
| Time | 2026-04-24 19:32 |
|---|---|
| Airport | Resistencia International Airport (SARE) |
| Time | Latitude | Longitude | Altitude | Speed | Heading |
|---|---|---|---|---|---|
| 2026-04-24 18:54 | -30.46975 | -58.82255 | 37030 ft | 411 kts | 340° |
| 2026-04-24 18:55 | -30.38413 | -58.82935 | 37026 ft | 412 kts | 340° |
| 2026-04-24 18:56 | -30.32699 | -58.83388 | 37031 ft | 413 kts | 340° |
| 2026-04-24 18:56 | -30.26975 | -58.83842 | 37027 ft | 413 kts | 340° |
| 2026-04-24 18:57 | -30.21244 | -58.84295 | 37024 ft | 414 kts | 340° |
| 2026-04-24 18:57 | -30.15509 | -58.84749 | 37028 ft | 414 kts | 340° |
| 2026-04-24 18:58 | -30.09765 | -58.85203 | 37029 ft | 415 kts | 340° |
| 2026-04-24 18:58 | -30.04014 | -58.85657 | 37028 ft | 415 kts | 340° |
| 2026-04-24 18:59 | -29.91991 | -58.86604 | 37029 ft | 416 kts | 341° |
| 2026-04-24 19:00 | -29.86221 | -58.87058 | 37032 ft | 417 kts | 341° |
| 2026-04-24 19:00 | -29.80448 | -58.87511 | 37031 ft | 417 kts | 341° |
| 2026-04-24 19:01 | -29.74671 | -58.87964 | 37028 ft | 417 kts | 341° |
| 2026-04-24 19:01 | -29.68889 | -58.88418 | 37027 ft | 417 kts | 341° |
| 2026-04-24 19:02 | -29.64067 | -58.88799 | 37033 ft | 418 kts | 341° |
| 2026-04-24 19:02 | -29.57315 | -58.89332 | 37032 ft | 418 kts | 341° |
| 2026-04-24 19:03 | -29.51519 | -58.89789 | 37032 ft | 419 kts | 341° |
| 2026-04-24 19:03 | -29.45715 | -58.90247 | 37031 ft | 419 kts | 341° |
| 2026-04-24 19:04 | -29.39912 | -58.90703 | 37030 ft | 419 kts | 341° |
| 2026-04-24 19:04 | -29.37013 | -58.90931 | 36898 ft | 417 kts | 342° |
| 2026-04-24 19:04 | -29.34140 | -58.91156 | 36284 ft | 415 kts | 342° |
| 2026-04-24 19:04 | -29.31287 | -58.91380 | 35883 ft | 408 kts | 342° |
| 2026-04-24 19:05 | -29.28476 | -58.91600 | 35460 ft | 403 kts | 342° |
| 2026-04-24 19:05 | -29.25695 | -58.91819 | 34966 ft | 400 kts | 342° |
| 2026-04-24 19:05 | -29.22931 | -58.92035 | 34488 ft | 398 kts | 342° |
| 2026-04-24 19:05 | -29.20187 | -58.92250 | 34009 ft | 395 kts | 342° |
| 2026-04-24 19:06 | -29.17453 | -58.92465 | 33480 ft | 393 kts | 342° |
| 2026-04-24 19:06 | -29.14744 | -58.92677 | 32996 ft | 390 kts | 342° |
| 2026-04-24 19:06 | -29.12056 | -58.92888 | 32545 ft | 386 kts | 342° |
| 2026-04-24 19:06 | -29.09390 | -58.93096 | 32102 ft | 383 kts | 342° |
| 2026-04-24 19:07 | -29.06749 | -58.93303 | 31650 ft | 380 kts | 342° |
| 2026-04-24 19:07 | -29.04124 | -58.93508 | 31203 ft | 378 kts | 341° |
| 2026-04-24 19:07 | -29.02383 | -58.93644 | 30914 ft | 376 kts | 341° |
| 2026-04-24 19:07 | -28.98896 | -58.93917 | 30329 ft | 381 kts | 341° |
| 2026-04-24 19:08 | -28.96246 | -58.94124 | 29828 ft | 385 kts | 342° |
| 2026-04-24 19:08 | -28.93576 | -58.94331 | 29329 ft | 385 kts | 342° |
| 2026-04-24 19:08 | -28.90911 | -58.94538 | 28890 ft | 384 kts | 343° |
| 2026-04-24 19:08 | -28.88258 | -58.94744 | 28455 ft | 382 kts | 343° |
| 2026-04-24 19:09 | -28.85617 | -58.94949 | 27962 ft | 380 kts | 343° |
| 2026-04-24 19:09 | -28.82988 | -58.95152 | 27481 ft | 379 kts | 344° |
| 2026-04-24 19:09 | -28.80377 | -58.95355 | 27084 ft | 375 kts | 344° |
| 2026-04-24 19:09 | -28.77786 | -58.95555 | 26656 ft | 373 kts | 345° |
| 2026-04-24 19:10 | -28.75213 | -58.95754 | 26246 ft | 370 kts | 345° |
| 2026-04-24 19:10 | -28.72656 | -58.95952 | 25830 ft | 368 kts | 345° |
| 2026-04-24 19:10 | -28.70111 | -58.96149 | 25416 ft | 366 kts | 346° |
| 2026-04-24 19:10 | -28.67582 | -58.96345 | 25009 ft | 364 kts | 346° |
| 2026-04-24 19:11 | -28.65061 | -58.96540 | 24600 ft | 363 kts | 346° |
| 2026-04-24 19:11 | -28.62552 | -58.96733 | 24203 ft | 362 kts | 347° |
| 2026-04-24 19:11 | -28.60049 | -58.96927 | 23809 ft | 360 kts | 347° |
| 2026-04-24 19:11 | -28.57556 | -58.97119 | 23371 ft | 359 kts | 347° |
| 2026-04-24 19:12 | -28.55076 | -58.97310 | 22932 ft | 357 kts | 348° |
| 2026-04-24 19:12 | -28.52613 | -58.97500 | 22538 ft | 354 kts | 348° |
| 2026-04-24 19:12 | -28.50172 | -58.97688 | 22158 ft | 351 kts | 348° |
| 2026-04-24 19:12 | -28.47754 | -58.97875 | 21792 ft | 347 kts | 348° |
| 2026-04-24 19:13 | -28.46154 | -58.97998 | 21552 ft | 345 kts | 348° |
| 2026-04-24 19:13 | -28.42986 | -58.98242 | 21080 ft | 342 kts | 349° |
| 2026-04-24 19:13 | -28.40625 | -58.98423 | 20726 ft | 340 kts | 349° |
| 2026-04-24 19:13 | -28.38273 | -58.98604 | 20373 ft | 338 kts | 349° |
| 2026-04-24 19:14 | -28.35927 | -58.98708 | 19988 ft | 341 kts | 357° |
| 2026-04-24 19:14 | -28.33566 | -58.98450 | 19646 ft | 340 kts | 358° |
| 2026-04-24 19:14 | -28.31227 | -58.98227 | 19326 ft | 336 kts | 358° |
| 2026-04-24 19:14 | -28.28907 | -58.98023 | 19005 ft | 333 kts | 358° |
| 2026-04-24 19:15 | -28.26607 | -58.97832 | 18682 ft | 331 kts | 358° |
| 2026-04-24 19:15 | -28.24324 | -58.97648 | 18355 ft | 328 kts | 358° |
| 2026-04-24 19:15 | -28.22056 | -58.97469 | 17993 ft | 326 kts | 358° |
| 2026-04-24 19:15 | -28.19809 | -58.97293 | 17654 ft | 323 kts | 358° |
| 2026-04-24 19:16 | -28.15384 | -58.96947 | 17029 ft | 316 kts | 358° |
| 2026-04-24 19:16 | -28.13206 | -58.96777 | 16724 ft | 313 kts | 358° |
| 2026-04-24 19:16 | -28.11034 | -58.96608 | 16403 ft | 316 kts | 358° |
| 2026-04-24 19:17 | -28.08831 | -58.96436 | 16084 ft | 321 kts | 358° |
| 2026-04-24 19:17 | -28.06602 | -58.96263 | 15770 ft | 322 kts | 359° |
| 2026-04-24 19:17 | -28.04376 | -58.96089 | 15468 ft | 321 kts | 359° |
| 2026-04-24 19:17 | -28.02155 | -58.95915 | 15155 ft | 320 kts | 359° |
| 2026-04-24 19:18 | -27.99953 | -58.95744 | 14848 ft | 316 kts | 359° |
| 2026-04-24 19:18 | -27.97774 | -58.95574 | 14539 ft | 313 kts | 359° |
| 2026-04-24 19:18 | -27.95618 | -58.95407 | 14246 ft | 310 kts | 359° |
| 2026-04-24 19:18 | -27.93478 | -58.95241 | 13954 ft | 309 kts | 359° |
| 2026-04-24 19:19 | -27.91339 | -58.95074 | 13641 ft | 309 kts | 359° |
| 2026-04-24 19:19 | -27.89187 | -58.94907 | 13289 ft | 312 kts | 359° |
| 2026-04-24 19:19 | -27.87022 | -58.94739 | 12968 ft | 313 kts | 359° |
| 2026-04-24 19:19 | -27.84858 | -58.94572 | 12668 ft | 313 kts | 359° |
| 2026-04-24 19:20 | -27.82695 | -58.94404 | 12328 ft | 311 kts | 359° |
| 2026-04-24 19:20 | -27.80547 | -58.94232 | 12004 ft | 308 kts | 359° |
| 2026-04-24 19:20 | -27.78423 | -58.94061 | 11691 ft | 305 kts | 359° |
| 2026-04-24 19:20 | -27.76332 | -58.93892 | 11425 ft | 300 kts | 359° |
| 2026-04-24 19:21 | -27.74267 | -58.93727 | 11163 ft | 297 kts | 359° |
| 2026-04-24 19:21 | -27.72219 | -58.93563 | 10876 ft | 296 kts | 359° |
| 2026-04-24 19:21 | -27.70167 | -58.93397 | 10575 ft | 296 kts | 359° |
| 2026-04-24 19:21 | -27.68127 | -58.93233 | 10401 ft | 293 kts | 359° |
| 2026-04-24 19:22 | -27.66781 | -58.93124 | 10295 ft | 290 kts | 359° |
| 2026-04-24 19:22 | -27.64137 | -58.92912 | 10107 ft | 282 kts | 359° |
| 2026-04-24 19:22 | -27.62205 | -58.92757 | 9906 ft | 278 kts | 359° |
| 2026-04-24 19:22 | -27.60280 | -58.92603 | 9615 ft | 278 kts | 359° |
| 2026-04-24 19:23 | -27.58356 | -58.92449 | 9288 ft | 276 kts | 359° |
| 2026-04-24 19:23 | -27.56463 | -58.92297 | 9025 ft | 271 kts | 359° |
| 2026-04-24 19:23 | -27.54596 | -58.92148 | 8762 ft | 267 kts | 359° |
| 2026-04-24 19:23 | -27.52757 | -58.92001 | 8503 ft | 264 kts | 359° |
| 2026-04-24 19:24 | -27.50938 | -58.91856 | 8227 ft | 261 kts | 359° |
| 2026-04-24 19:24 | -27.49158 | -58.91696 | 8041 ft | 255 kts | 2° |
| 2026-04-24 19:24 | -27.47390 | -58.91276 | 7475 ft | 267 kts | 8° |
| 2026-04-24 19:24 | -27.45565 | -58.90800 | 6800 ft | 272 kts | 8° |
| 2026-04-24 19:25 | -27.43717 | -58.90331 | 6179 ft | 274 kts | 8° |
| 2026-04-24 19:25 | -27.41855 | -58.89868 | 5533 ft | 275 kts | 8° |
| 2026-04-24 19:25 | -27.39982 | -58.89410 | 4901 ft | 277 kts | 9° |
| 2026-04-24 19:25 | -27.38108 | -58.88957 | 4472 ft | 270 kts | 9° |
| 2026-04-24 19:26 | -27.36369 | -58.88539 | 4471 ft | 246 kts | 9° |
| 2026-04-24 19:26 | -27.34689 | -58.88141 | 3822 ft | 251 kts | 8° |
| 2026-04-24 19:26 | -27.32985 | -58.88248 | 3408 ft | 243 kts | 338° |
| 2026-04-24 19:26 | -27.31688 | -58.89296 | 3338 ft | 222 kts | 308° |
| 2026-04-24 19:27 | -27.30996 | -58.90734 | 3328 ft | 200 kts | 294° |
| 2026-04-24 19:27 | -27.30458 | -58.92148 | 3248 ft | 193 kts | 293° |
| 2026-04-24 19:27 | -27.29951 | -58.93530 | 3009 ft | 192 kts | 292° |
| 2026-04-24 19:27 | -27.29446 | -58.94939 | 2784 ft | 197 kts | 292° |
| 2026-04-24 19:28 | -27.29005 | -58.96396 | 2505 ft | 198 kts | 277° |
| 2026-04-24 19:28 | -27.29212 | -58.97876 | 2320 ft | 192 kts | 242° |
| 2026-04-24 19:28 | -27.30063 | -58.98944 | 2295 ft | 181 kts | 216° |
| 2026-04-24 19:28 | -27.31132 | -58.99651 | 2296 ft | 175 kts | 205° |
| 2026-04-24 19:29 | -27.32938 | -59.00446 | 2280 ft | 158 kts | 200° |
| 2026-04-24 19:30 | -27.37155 | -59.02248 | 1562 ft | 152 kts | 198° |
| 2026-04-24 19:30 | -27.38140 | -59.02671 | 1361 ft | 152 kts | 199° |
| 2026-04-24 19:30 | -27.39123 | -59.03092 | 1167 ft | 150 kts | 200° |
| 2026-04-24 19:31 | -27.40090 | -59.03506 | 970 ft | 149 kts | 199° |
| 2026-04-24 19:31 | -27.41045 | -59.03917 | 764 ft | 147 kts | 199° |
| 2026-04-24 19:31 | -27.42003 | -59.04327 | 600 ft | 146 kts | 199° |
| 2026-04-24 19:31 | -27.42952 | -59.04734 | 418 ft | 146 kts | 199° |
| 2026-04-24 19:32 | -27.43895 | -59.05139 | 214 ft | 143 kts | 199° |
| 2026-04-24 19:32 | -27.44738 | -59.05489 | 186 ft | 113 kts | 200° |
| 2026-04-24 19:32 | -27.45231 | -59.05706 | 183 ft | 43 kts | 203° |
| 2026-04-24 19:32 | -27.45354 | -59.05767 | 181 ft | 5 kts | 142° |
| 2026-04-24 19:33 | -27.45343 | -59.05741 | 182 ft | 6 kts | 40° |
| 2026-04-24 19:33 | -27.45281 | -59.05723 | 182 ft | 14 kts | 10° |
| 2026-04-24 19:33 | -27.45174 | -59.05686 | 183 ft | 15 kts | 21° |
| 2026-04-24 19:33 | -27.45077 | -59.05644 | 184 ft | 14 kts | 23° |
| 2026-04-24 19:34 | -27.44985 | -59.05601 | 184 ft | 14 kts | 21° |
| 2026-04-24 19:34 | -27.44897 | -59.05563 | 192 ft | 12 kts | 24° |
| 2026-04-24 19:34 | -27.44826 | -59.05507 | 196 ft | 13 kts | 39° |
| 2026-04-24 19:34 | -27.44763 | -59.05425 | 184 ft | 15 kts | 60° |
| 2026-04-24 19:35 | -27.44707 | -59.05330 | 182 ft | 14 kts | 57° |
| 2026-04-24 19:35 | -27.44651 | -59.05234 | 184 ft | 15 kts | 56° |
| 2026-04-24 19:35 | -27.44592 | -59.05134 | 187 ft | 15 kts | 60° |
| 2026-04-24 19:35 | -27.44601 | -59.05025 | 185 ft | 12 kts | 103° |
| 2026-04-24 19:36 | -27.44568 | -59.04962 | 184 ft | 10 kts | 49° |
| 2026-04-24 19:36 | -27.44522 | -59.04935 | 184 ft | 4 kts | 33° |
| 2026-04-24 19:36 | -27.44521 | -59.04935 | 184 ft | 0 kts | 33° |
| 2026-04-24 19:37 | -27.46439 | -59.06178 | 181 ft | 0 kts | 89° |
| 2026-04-24 19:38 | -27.46421 | -59.06291 | 181 ft | 0 kts | 258° |